Time;durP1;ratioP1;P1;durP2;ratioP2;P2;SDS_P1;SDS_P2;PMS_P1;PMS_P2;Temp;Humidity;BMP_temperature;BMP_pressure;BME280_temperature;BME280_humidity;BME280_pressure;Samples;Min_cycle;Max_cycle;Signal;HPM_P1;HPM_P2
2021/01/15 00:00:11;;;;;;;;;;;;;;;;;;4970374;28;19934;-64
2021/01/15 00:02:38;;;;;;;;;;;;;;;;;;4970937;28;20009;-62
2021/01/15 00:05:05;;;;;;;;;;;;;;;;;;4971614;28;19926;-62
2021/01/15 00:07:32;;;;;;;;;;;;;;;;;;4970465;28;19930;-63
2021/01/15 00:10:00;;;;;;;;;;;;;;;;;;4970635;28;19954;-62
2021/01/15 00:12:27;;;;;;;;;;;;;;;;;;4970830;28;19930;-63
2021/01/15 00:14:54;;;;;;;;;;;;;;;;;;4971040;28;20028;-63
2021/01/15 00:17:21;;;;;;;;;;;;;;;;;;4962849;28;20013;-62
2021/01/15 00:19:49;;;;;;;;;;;;;;;;;;4967351;28;19930;-62
2021/01/15 00:22:16;;;;;;;;;;;;;;;;;;4971100;28;20065;-62
2021/01/15 00:24:43;;;;;;;;;;;;;;;;;;4971257;28;19934;-62
2021/01/15 00:27:10;;;;;;;;;;;;;;;;;;4970382;28;20408;-63
2021/01/15 00:29:37;;;;;;;;;;;;;;;;;;4969159;28;19930;-62
2021/01/15 00:32:05;;;;;;;;;;;;;;;;;;4970690;28;19965;-62
2021/01/15 00:34:32;;;;;;;;;;;;;;;;;;4969135;28;19930;-62
2021/01/15 00:36:59;;;;;;;;;;;;;;;;;;4953998;28;19930;-62
2021/01/15 00:39:26;;;;;;;;;;;;;;;;;;4969416;28;19937;-62
2021/01/15 00:41:54;;;;;;;;;;;;;;;;;;4970517;28;20290;-62
2021/01/15 00:44:21;;;;;;;;;;;;;;;;;;4963805;28;20017;-62
2021/01/15 00:46:48;;;;;;;;;;;;;;;;;;4976635;28;19926;-63
2021/01/15 00:49:15;;;;;;;;;;;;;;;;;;4969173;28;20277;-63
2021/01/15 00:51:42;;;;;;;;;;;;;;;;;;4970295;28;20261;-62
2021/01/15 00:54:09;;;;;;;;;;;;;;;;;;4970746;28;19984;-62
2021/01/15 00:56:36;;;;;;;;;;;;;;;;;;4970131;28;19926;-61
2021/01/15 00:59:03;;;;;;;;;;;;;;;;;;4969300;28;19934;-62
2021/01/15 01:01:30;;;;;;;;;;;;;;;;;;4970587;28;19926;-62
2021/01/15 01:03:58;;;;;;;;;;;;;;;;;;4970341;28;20041;-64
2021/01/15 01:06:25;;;;;;;;;;;;;;;;;;4968969;28;19932;-63
2021/01/15 01:08:52;;;;;;;;;;;;;;;;;;4969218;28;19930;-63
2021/01/15 01:11:19;;;;;;;;;;;;;;;;;;4970236;28;20006;-63
2021/01/15 01:13:46;;;;;;;;;;;;;;;;;;4969668;28;20313;-63
2021/01/15 01:16:13;;;;;;;;;;;;;;;;;;4969653;28;19930;-63
2021/01/15 01:18:41;;;;;;;;;;;;;;;;;;4954455;28;19938;-63
2021/01/15 01:21:08;;;;;;;;;;;;;;;;;;4966025;28;19952;-62
2021/01/15 01:23:35;;;;;;;;;;;;;;;;;;4970054;28;19936;-62
2021/01/15 01:26:02;;;;;;;;;;;;;;;;;;4969508;28;19937;-63
2021/01/15 01:28:30;;;;;;;;;;;;;;;;;;4969702;28;19934;-63
2021/01/15 01:30:57;;;;;;;;;;;;;;;;;;4968989;28;19937;-62
2021/01/15 01:33:25;;;;;;;;;;;;;;;;;;4969629;28;19926;-63
2021/01/15 01:35:52;;;;;;;;;;;;;;;;;;4969567;28;20388;-63
2021/01/15 01:38:19;;;;;;;;;;;;;;;;;;4970228;28;19926;-63
2021/01/15 01:40:46;;;;;;;;;;;;;;;;;;4969155;28;19961;-61
2021/01/15 01:43:13;;;;;;;;;;;;;;;;;;4969961;28;20302;-62
2021/01/15 01:45:40;;;;;;;;;;;;;;;;;;4969706;28;19930;-62
2021/01/15 01:48:07;;;;;;;;;;;;;;;;;;4969339;28;19930;-62
2021/01/15 01:50:34;;;;;;;;;;;;;;;;;;4968464;28;20017;-62
2021/01/15 01:53:01;;;;;;;;;;;;;;;;;;4969599;28;19933;-62
2021/01/15 01:55:28;;;;;;;;;;;;;;;;;;4969225;28;19930;-64
2021/01/15 01:57:55;;;;;;;;;;;;;;;;;;4969519;28;19932;-63
2021/01/15 02:00:22;;;;;;;;;;;;;;;;;;4967605;28;20080;-62
2021/01/15 02:02:50;;;;;;;;;;;;;;;;;;4968921;28;20013;-63
2021/01/15 02:05:17;;;;;;;;;;;;;;;;;;5003600;23;20004;-62
2021/01/15 02:07:44;;;;;;;;;;;;;;;;;;4993197;28;19988;-62
2021/01/15 02:10:12;;;;;;;;;;;;;;;;;;4993527;28;19925;-62
2021/01/15 02:12:39;;;;;;;;;;;;;;;;;;4993913;28;19926;-62
2021/01/15 02:15:06;;;;;;;;;;;;;;;;;;4993547;28;19926;-62
2021/01/15 02:17:33;;;;;;;;;;;;;;;;;;4993280;28;19947;-62
2021/01/15 02:20:00;;;;;;;;;;;;;;;;;;4992779;28;19932;-62
2021/01/15 02:22:28;;;;;;;;;;;;;;;;;;4992619;28;20389;-62
2021/01/15 02:24:55;;;;;;;;;;;;;;;;;;4993587;28;20024;-62
2021/01/15 02:27:22;;;;;;;;;;;;;;;;;;4993206;28;20369;-62
2021/01/15 02:29:49;;;;;;;;;;;;;;;;;;4993244;28;19926;-62
2021/01/15 02:32:16;;;;;;;;;;;;;;;;;;4992946;28;19932;-62
2021/01/15 02:34:43;;;;;;;;;;;;;;;;;;4993290;28;19992;-62
2021/01/15 02:37:10;;;;;;;;;;;;;;;;;;4993728;28;20016;-62
2021/01/15 02:39:37;;;;;;;;;;;;;;;;;;4993200;28;19957;-62
2021/01/15 02:42:04;;;;;;;;;;;;;;;;;;4993606;28;19930;-62
2021/01/15 02:44:32;;;;;;;;;;;;;;;;;;4993021;28;20012;-62
2021/01/15 02:47:00;;;;;;;;;;;;;;;;;;4993400;28;19926;-62
2021/01/15 02:49:27;;;;;;;;;;;;;;;;;;4992805;28;19945;-62
2021/01/15 02:51:54;;;;;;;;;;;;;;;;;;4993109;28;20028;-62
2021/01/15 02:54:21;;;;;;;;;;;;;;;;;;4992770;28;19965;-62
2021/01/15 02:56:48;;;;;;;;;;;;;;;;;;4992788;28;20446;-62
2021/01/15 02:59:15;;;;;;;;;;;;;;;;;;4993668;28;19926;-62
2021/01/15 03:01:43;;;;;;;;;;;;;;;;;;4992762;28;20327;-62
2021/01/15 03:04:10;;;;;;;;;;;;;;;;;;4989308;28;19948;-62
2021/01/15 03:06:37;;;;;;;;;;;;;;;;;;4984374;28;19930;-62
2021/01/15 03:09:04;;;;;;;;;;;;;;;;;;4989344;28;20393;-62
2021/01/15 03:11:31;;;;;;;;;;;;;;;;;;4988629;28;19934;-62
2021/01/15 03:13:58;;;;;;;;;;;;;;;;;;4991505;28;20414;-62
2021/01/15 03:16:25;;;;;;;;;;;;;;;;;;4991623;28;20020;-62
2021/01/15 03:18:52;;;;;;;;;;;;;;;;;;4992907;28;19929;-62
2021/01/15 03:21:20;;;;;;;;;;;;;;;;;;4991234;28;19936;-62
2021/01/15 03:23:47;;;;;;;;;;;;;;;;;;4992021;28;20016;-62
2021/01/15 03:26:14;;;;;;;;;;;;;;;;;;4988412;28;19932;-62
2021/01/15 03:28:41;;;;;;;;;;;;;;;;;;4977782;28;19930;-63
2021/01/15 03:31:08;;;;;;;;;;;;;;;;;;4987596;28;20017;-62
2021/01/15 03:33:35;;;;;;;;;;;;;;;;;;4992722;28;20398;-62
2021/01/15 03:36:02;;;;;;;;;;;;;;;;;;4993544;28;19936;-62
2021/01/15 03:38:30;;;;;;;;;;;;;;;;;;4982471;28;19953;-62
2021/01/15 03:40:57;;;;;;;;;;;;;;;;;;4992134;28;20593;-62
2021/01/15 03:43:24;;;;;;;;;;;;;;;;;;4987615;28;20005;-62
2021/01/15 03:45:51;;;;;;;;;;;;;;;;;;4993536;28;20020;-62
2021/01/15 03:48:19;;;;;;;;;;;;;;;;;;4992605;28;20294;-62
2021/01/15 03:50:46;;;;;;;;;;;;;;;;;;4985238;28;19936;-62
2021/01/15 03:53:13;;;;;;;;;;;;;;;;;;4992120;28;19934;-62
2021/01/15 03:55:40;;;;;;;;;;;;;;;;;;4993230;28;19926;-62
2021/01/15 03:58:07;;;;;;;;;;;;;;;;;;4992881;28;19936;-62
2021/01/15 04:00:34;;;;;;;;;;;;;;;;;;4991644;28;19929;-62
2021/01/15 04:03:05;;;;;;;;;;;;;;;;;;4992793;28;19929;-62
2021/01/15 04:05:33;;;;;;;;;;;;;;;;;;4992535;28;19926;-62
2021/01/15 04:08:00;;;;;;;;;;;;;;;;;;4992474;28;19981;-62
2021/01/15 04:10:27;;;;;;;;;;;;;;;;;;4990978;28;19930;-62
2021/01/15 04:12:54;;;;;;;;;;;;;;;;;;4991987;28;20411;-62
2021/01/15 04:15:21;;;;;;;;;;;;;;;;;;4992694;28;20021;-62
2021/01/15 04:17:48;;;;;;;;;;;;;;;;;;4992579;28;20004;-62
2021/01/15 04:20:15;;;;;;;;;;;;;;;;;;4991063;28;21385;-62
2021/01/15 04:22:43;;;;;;;;;;;;;;;;;;4991664;28;20432;-62
2021/01/15 04:25:10;;;;;;;;;;;;;;;;;;4989595;28;19972;-62
2021/01/15 04:27:37;;;;;;;;;;;;;;;;;;4973414;28;19981;-62
2021/01/15 04:30:04;;;;;;;;;;;;;;;;;;4990417;28;19925;-62
2021/01/15 04:32:31;;;;;;;;;;;;;;;;;;4991789;28;20290;-62
2021/01/15 04:34:58;;;;;;;;;;;;;;;;;;4989692;28;19925;-62
2021/01/15 04:37:26;;;;;;;;;;;;;;;;;;4989547;28;19940;-63
2021/01/15 04:39:53;;;;;;;;;;;;;;;;;;4987592;28;20009;-62
2021/01/15 04:42:20;;;;;;;;;;;;;;;;;;4976016;28;19932;-62
2021/01/15 04:44:47;;;;;;;;;;;;;;;;;;4989810;28;19984;-62
2021/01/15 04:47:14;;;;;;;;;;;;;;;;;;4989741;28;19929;-62
2021/01/15 04:49:41;;;;;;;;;;;;;;;;;;4985409;28;19933;-62
2021/01/15 04:52:09;;;;;;;;;;;;;;;;;;4990419;28;20365;-62
2021/01/15 04:54:36;;;;;;;;;;;;;;;;;;4989526;28;20020;-62
2021/01/15 04:57:03;;;;;;;;;;;;;;;;;;4990435;28;20020;-62
2021/01/15 04:59:30;;;;;;;;;;;;;;;;;;4988540;28;20142;-62
2021/01/15 05:01:57;;;;;;;;;;;;;;;;;;4990812;28;20385;-62
2021/01/15 05:04:25;;;;;;;;;;;;;;;;;;4988019;28;19932;-62
2021/01/15 05:06:52;;;;;;;;;;;;;;;;;;4990566;28;20024;-62
2021/01/15 05:09:22;;;;;;;;;;;;;;;;;;4989290;28;20077;-62
2021/01/15 05:11:49;;;;;;;;;;;;;;;;;;4990330;28;19932;-62
2021/01/15 05:14:17;;;;;;;;;;;;;;;;;;4989253;28;19976;-62
2021/01/15 05:16:44;;;;;;;;;;;;;;;;;;4982551;28;19977;-62
2021/01/15 05:19:13;;;;;;;;;;;;;;;;;;4989430;28;20022;-62
2021/01/15 05:21:41;;;;;;;;;;;;;;;;;;4989159;28;20317;-62
2021/01/15 05:24:08;;;;;;;;;;;;;;;;;;4987989;28;19926;-62
2021/01/15 05:26:35;;;;;;;;;;;;;;;;;;4985653;28;19926;-62
2021/01/15 05:29:02;;;;;;;;;;;;;;;;;;4985028;28;19925;-62
2021/01/15 05:31:31;;;;;;;;;;;;;;;;;;4988427;28;20031;-62
2021/01/15 05:33:58;;;;;;;;;;;;;;;;;;4988449;28;19981;-62
2021/01/15 05:36:25;;;;;;;;;;;;;;;;;;4984559;28;19929;-62
2021/01/15 05:38:52;;;;;;;;;;;;;;;;;;4989605;28;20001;-62
2021/01/15 05:41:19;;;;;;;;;;;;;;;;;;4987935;28;19936;-62
2021/01/15 05:43:46;;;;;;;;;;;;;;;;;;4988925;28;20343;-62
2021/01/15 05:46:14;;;;;;;;;;;;;;;;;;4984680;28;19926;-62
2021/01/15 05:48:42;;;;;;;;;;;;;;;;;;4989367;28;20480;-62
2021/01/15 05:51:09;;;;;;;;;;;;;;;;;;4989066;28;19948;-62
2021/01/15 05:53:36;;;;;;;;;;;;;;;;;;4988943;28;19926;-62
2021/01/15 05:56:03;;;;;;;;;;;;;;;;;;4988426;28;19938;-62
2021/01/15 05:58:31;;;;;;;;;;;;;;;;;;4987836;28;20406;-62
2021/01/15 06:00:58;;;;;;;;;;;;;;;;;;4987859;28;20660;-62
2021/01/15 06:03:26;;;;;;;;;;;;;;;;;;4987942;28;20343;-62
2021/01/15 06:05:53;;;;;;;;;;;;;;;;;;4989115;28;20412;-62
2021/01/15 06:08:21;;;;;;;;;;;;;;;;;;4988195;28;19941;-61
2021/01/15 06:10:48;;;;;;;;;;;;;;;;;;4988614;28;19961;-62
2021/01/15 06:13:15;;;;;;;;;;;;;;;;;;4987330;28;20374;-62
2021/01/15 06:15:42;;;;;;;;;;;;;;;;;;4987541;28;20020;-62
2021/01/15 06:18:09;;;;;;;;;;;;;;;;;;4984590;28;19964;-62
2021/01/15 06:20:36;;;;;;;;;;;;;;;;;;4987385;28;20382;-62
2021/01/15 06:23:03;;;;;;;;;;;;;;;;;;4988205;28;19941;-62
2021/01/15 06:25:30;;;;;;;;;;;;;;;;;;4988726;28;19934;-62
2021/01/15 06:27:58;;;;;;;;;;;;;;;;;;4989201;28;20272;-62
2021/01/15 06:30:25;;;;;;;;;;;;;;;;;;4987604;28;19933;-61
2021/01/15 06:32:52;;;;;;;;;;;;;;;;;;4986190;28;20021;-62
2021/01/15 06:35:20;;;;;;;;;;;;;;;;;;4985131;28;20153;-62
2021/01/15 06:37:47;;;;;;;;;;;;;;;;;;4985155;28;20360;-62
2021/01/15 06:40:14;;;;;;;;;;;;;;;;;;4983096;28;19936;-62
2021/01/15 06:42:41;;;;;;;;;;;;;;;;;;4974149;28;20539;-63
2021/01/15 06:45:13;;;;;;;;;;;;;;;;;;4984683;28;20032;-63
2021/01/15 06:47:40;;;;;;;;;;;;;;;;;;4987079;28;20012;-63
2021/01/15 06:50:07;;;;;;;;;;;;;;;;;;4987446;28;19930;-63
2021/01/15 06:52:34;;;;;;;;;;;;;;;;;;4986552;28;20013;-63
2021/01/15 06:55:01;;;;;;;;;;;;;;;;;;4988287;28;20302;-63
2021/01/15 06:57:30;;;;;;;;;;;;;;;;;;4988051;28;19952;-62
2021/01/15 06:59:57;;;;;;;;;;;;;;;;;;4987351;28;20416;-62
2021/01/15 07:02:24;;;;;;;;;;;;;;;;;;4987739;28;20004;-62
2021/01/15 07:04:51;;;;;;;;;;;;;;;;;;4988258;28;20032;-61
2021/01/15 07:07:18;;;;;;;;;;;;;;;;;;4988814;28;19995;-62
2021/01/15 07:09:46;;;;;;;;;;;;;;;;;;4988815;28;19926;-62
2021/01/15 07:12:13;;;;;;;;;;;;;;;;;;4989651;28;19941;-62
2021/01/15 07:14:40;;;;;;;;;;;;;;;;;;4989164;28;19957;-62
2021/01/15 07:17:07;;;;;;;;;;;;;;;;;;4986995;28;20389;-62
2021/01/15 07:19:35;;;;;;;;;;;;;;;;;;4987574;28;20123;-62
2021/01/15 07:22:03;;;;;;;;;;;;;;;;;;4989404;28;19969;-62
2021/01/15 07:24:30;;;;;;;;;;;;;;;;;;4987844;28;20301;-62
2021/01/15 07:26:57;;;;;;;;;;;;;;;;;;4988009;28;20278;-62
2021/01/15 07:29:25;;;;;;;;;;;;;;;;;;4988083;28;19996;-62
2021/01/15 07:31:52;;;;;;;;;;;;;;;;;;4986613;28;19934;-62
2021/01/15 07:34:20;;;;;;;;;;;;;;;;;;4981420;28;20382;-63
2021/01/15 07:36:47;;;;;;;;;;;;;;;;;;4986199;28;19977;-62
2021/01/15 07:39:14;;;;;;;;;;;;;;;;;;4984638;28;19973;-63
2021/01/15 07:41:41;;;;;;;;;;;;;;;;;;4987412;28;19945;-62
2021/01/15 07:44:09;;;;;;;;;;;;;;;;;;4987188;28;19933;-63
2021/01/15 07:46:36;;;;;;;;;;;;;;;;;;4986503;28;20287;-62
2021/01/15 07:49:03;;;;;;;;;;;;;;;;;;4986843;28;20009;-62
2021/01/15 07:51:31;;;;;;;;;;;;;;;;;;4989333;28;20104;-62
2021/01/15 07:53:58;;;;;;;;;;;;;;;;;;4990002;28;19933;-62
2021/01/15 07:56:26;;;;;;;;;;;;;;;;;;4983116;28;19940;-62
2021/01/15 07:58:53;;;;;;;;;;;;;;;;;;4981093;28;19934;-62
2021/01/15 08:01:21;;;;;;;;;;;;;;;;;;4987422;28;20136;-62
2021/01/15 08:03:52;;;;;;;;;;;;;;;;;;4985863;28;20377;-62
2021/01/15 08:06:20;;;;;;;;;;;;;;;;;;4989901;28;19929;-63
2021/01/15 08:08:47;;;;;;;;;;;;;;;;;;4988477;28;19929;-62
2021/01/15 08:11:15;;;;;;;;;;;;;;;;;;4985308;28;19926;-62
2021/01/15 08:13:44;;;;;;;;;;;;;;;;;;4989986;28;19934;-62
2021/01/15 08:16:13;;;;;;;;;;;;;;;;;;4988697;28;20384;-62
2021/01/15 08:18:41;;;;;;;;;;;;;;;;;;4982749;28;20417;-62
2021/01/15 08:21:09;;;;;;;;;;;;;;;;;;4986254;28;19929;-62
2021/01/15 08:23:36;;;;;;;;;;;;;;;;;;4990417;28;19929;-62
2021/01/15 08:26:04;;;;;;;;;;;;;;;;;;4985713;28;19933;-62
2021/01/15 08:28:32;;;;;;;;;;;;;;;;;;4985373;28;20311;-62
2021/01/15 08:30:59;;;;;;;;;;;;;;;;;;4986840;28;21831;-62
2021/01/15 08:33:27;;;;;;;;;;;;;;;;;;4988013;28;20396;-62
2021/01/15 08:35:55;;;;;;;;;;;;;;;;;;4990243;28;19930;-62
2021/01/15 08:38:23;;;;;;;;;;;;;;;;;;4985866;28;20040;-62
2021/01/15 08:41:05;;;;;;;;;;;;;;;;;;4970864;28;20794;-62
2021/01/15 08:43:33;;;;;;;;;;;;;;;;;;4991066;28;19948;-62
2021/01/15 08:46:00;;;;;;;;;;;;;;;;;;4986273;28;19932;-62
2021/01/15 08:48:28;;;;;;;;;;;;;;;;;;4988455;28;20377;-62
2021/01/15 08:50:56;;;;;;;;;;;;;;;;;;4985343;28;19973;-62
2021/01/15 08:53:23;;;;;;;;;;;;;;;;;;4986161;28;20027;-62
2021/01/15 08:55:51;;;;;;;;;;;;;;;;;;4988652;28;19938;-62
2021/01/15 08:58:22;;;;;;;;;;;;;;;;;;4989899;28;19925;-62
2021/01/15 09:00:50;;;;;;;;;;;;;;;;;;4985702;28;19926;-62
2021/01/15 09:03:18;;;;;;;;;;;;;;;;;;4989760;28;19933;-62
2021/01/15 09:05:46;;;;;;;;;;;;;;;;;;4987164;28;20028;-62
2021/01/15 09:08:13;;;;;;;;;;;;;;;;;;4986466;28;19929;-62
2021/01/15 09:10:41;;;;;;;;;;;;;;;;;;4989739;28;19936;-62
2021/01/15 09:13:08;;;;;;;;;;;;;;;;;;4987152;28;19934;-62
2021/01/15 09:15:35;;;;;;;;;;;;;;;;;;4991012;28;19930;-62
2021/01/15 09:18:03;;;;;;;;;;;;;;;;;;4988780;28;19926;-62
2021/01/15 09:20:31;;;;;;;;;;;;;;;;;;4983431;28;20020;-62
2021/01/15 09:22:59;;;;;;;;;;;;;;;;;;4990067;28;19929;-62
2021/01/15 09:25:26;;;;;;;;;;;;;;;;;;4991577;28;19925;-62
2021/01/15 09:27:54;;;;;;;;;;;;;;;;;;4986158;28;19929;-63
2021/01/15 09:30:22;;;;;;;;;;;;;;;;;;4987049;28;20353;-62
2021/01/15 09:32:50;;;;;;;;;;;;;;;;;;4989489;28;19936;-63
2021/01/15 09:35:18;;;;;;;;;;;;;;;;;;4983560;28;19929;-63
2021/01/15 09:37:46;;;;;;;;;;;;;;;;;;4987236;28;20028;-62
2021/01/15 09:40:14;;;;;;;;;;;;;;;;;;4981126;28;19929;-63
2021/01/15 09:42:42;;;;;;;;;;;;;;;;;;4985546;28;20265;-63
2021/01/15 09:45:10;;;;;;;;;;;;;;;;;;4989821;28;19930;-62
2021/01/15 09:47:42;;;;;;;;;;;;;;;;;;4988509;28;19976;-62
2021/01/15 09:50:09;;;;;;;;;;;;;;;;;;4987635;28;19926;-62
2021/01/15 09:52:37;;;;;;;;;;;;;;;;;;4989206;28;20416;-62
2021/01/15 09:55:04;;;;;;;;;;;;;;;;;;4982607;28;19941;-62
2021/01/15 09:57:31;;;;;;;;;;;;;;;;;;4988583;28;19929;-62
2021/01/15 09:59:59;;;;;;;;;;;;;;;;;;4985375;28;19934;-62
2021/01/15 10:02:26;;;;;;;;;;;;;;;;;;4984198;28;19941;-62
2021/01/15 10:04:54;;;;;;;;;;;;;;;;;;4990169;28;19972;-63
2021/01/15 10:07:22;;;;;;;;;;;;;;;;;;4989475;28;19937;-62
2021/01/15 10:09:49;;;;;;;;;;;;;;;;;;4981807;28;19948;-63
2021/01/15 10:12:17;;;;;;;;;;;;;;;;;;4986450;28;20441;-62
2021/01/15 10:14:44;;;;;;;;;;;;;;;;;;4984343;28;19934;-62
2021/01/15 10:17:12;;;;;;;;;;;;;;;;;;4984432;28;19967;-62
2021/01/15 10:19:48;;;;;;;;;;;;;;;;;;4985976;28;20447;-62
2021/01/15 10:22:16;;;;;;;;;;;;;;;;;;4984811;28;19965;-63
2021/01/15 10:24:43;;;;;;;;;;;;;;;;;;4991242;28;19993;-63
2021/01/15 10:27:11;;;;;;;;;;;;;;;;;;4990845;28;19926;-62
2021/01/15 10:29:38;;;;;;;;;;;;;;;;;;4987976;28;20358;-62
2021/01/15 10:32:05;;;;;;;;;;;;;;;;;;4990235;28;20029;-62
2021/01/15 10:34:34;;;;;;;;;;;;;;;;;;4992777;28;19926;-62
2021/01/15 10:37:02;;;;;;;;;;;;;;;;;;4986552;28;19929;-63
2021/01/15 10:39:29;;;;;;;;;;;;;;;;;;4990652;28;20267;-63
2021/01/15 10:41:57;;;;;;;;;;;;;;;;;;4991107;28;19972;-63
2021/01/15 10:44:27;;;;;;;;;;;;;;;;;;4988828;28;20040;-63
2021/01/15 10:46:54;;;;;;;;;;;;;;;;;;4993107;28;20457;-62
2021/01/15 10:49:23;;;;;;;;;;;;;;;;;;4989801;28;20029;-63
2021/01/15 10:51:51;;;;;;;;;;;;;;;;;;4993078;28;19929;-63
2021/01/15 10:54:19;;;;;;;;;;;;;;;;;;4990622;28;19929;-63
2021/01/15 10:56:47;;;;;;;;;;;;;;;;;;4987737;28;19988;-63
2021/01/15 10:59:14;;;;;;;;;;;;;;;;;;4989676;28;19933;-63
2021/01/15 11:01:42;;;;;;;;;;;;;;;;;;4991950;28;19937;-62
2021/01/15 11:04:10;;;;;;;;;;;;;;;;;;4989865;28;19932;-62
2021/01/15 11:06:37;;;;;;;;;;;;;;;;;;4996028;28;20281;-62
2021/01/15 11:09:05;;;;;;;;;;;;;;;;;;4992017;28;19926;-62
2021/01/15 11:11:42;;;;;;;;;;;;;;;;;;4988681;28;20418;-63
2021/01/15 11:14:09;;;;;;;;;;;;;;;;;;4991397;28;19930;-63
2021/01/15 11:16:36;;;;;;;;;;;;;;;;;;4987123;28;20221;-62
2021/01/15 11:19:04;;;;;;;;;;;;;;;;;;4985903;28;20040;-62
2021/01/15 11:21:32;;;;;;;;;;;;;;;;;;4990849;28;20364;-62
2021/01/15 11:23:59;;;;;;;;;;;;;;;;;;4993036;28;20333;-62
2021/01/15 11:26:26;;;;;;;;;;;;;;;;;;4986827;28;20874;-63
2021/01/15 11:28:54;;;;;;;;;;;;;;;;;;4989684;28;20374;-63
2021/01/15 11:31:22;;;;;;;;;;;;;;;;;;4990795;28;20013;-63
2021/01/15 11:33:49;;;;;;;;;;;;;;;;;;4987466;28;20398;-63
2021/01/15 11:36:18;;;;;;;;;;;;;;;;;;4989976;28;19930;-63
2021/01/15 11:38:46;;;;;;;;;;;;;;;;;;4987901;28;20032;-63
2021/01/15 11:41:13;;;;;;;;;;;;;;;;;;4988968;28;19952;-63
2021/01/15 11:43:40;;;;;;;;;;;;;;;;;;4987407;28;19926;-63
2021/01/15 11:46:08;;;;;;;;;;;;;;;;;;4987125;28;19988;-62
2021/01/15 11:48:48;;;;;;;;;;;;;;;;;;4992820;28;19958;-63
2021/01/15 11:51:15;;;;;;;;;;;;;;;;;;4990480;28;19926;-63
2021/01/15 11:53:42;;;;;;;;;;;;;;;;;;4986788;28;19984;-63
2021/01/15 11:56:10;;;;;;;;;;;;;;;;;;4991491;28;20316;-62
2021/01/15 11:58:37;;;;;;;;;;;;;;;;;;4990676;28;19992;-62
2021/01/15 12:01:04;;;;;;;;;;;;;;;;;;4985169;28;20898;-63
2021/01/15 12:03:32;;;;;;;;;;;;;;;;;;4990194;28;19980;-63
2021/01/15 12:05:59;;;;;;;;;;;;;;;;;;4985130;28;19934;-63
2021/01/15 12:08:26;;;;;;;;;;;;;;;;;;4990954;28;19930;-63
2021/01/15 12:10:54;;;;;;;;;;;;;;;;;;4991865;28;19976;-63
2021/01/15 12:13:22;;;;;;;;;;;;;;;;;;4988882;28;19942;-63
2021/01/15 12:15:49;;;;;;;;;;;;;;;;;;4992310;28;19952;-63
2021/01/15 12:18:16;;;;;;;;;;;;;;;;;;4992605;28;19937;-63
2021/01/15 12:20:44;;;;;;;;;;;;;;;;;;4987783;28;19980;-64
2021/01/15 12:23:11;;;;;;;;;;;;;;;;;;4991256;28;19925;-63
2021/01/15 12:25:39;;;;;;;;;;;;;;;;;;4989123;28;19992;-63
2021/01/15 12:28:07;;;;;;;;;;;;;;;;;;4982685;28;20408;-63
2021/01/15 12:30:34;;;;;;;;;;;;;;;;;;4990985;28;19925;-63
2021/01/15 12:33:02;;;;;;;;;;;;;;;;;;4988563;28;19977;-63
2021/01/15 12:35:30;;;;;;;;;;;;;;;;;;4988155;28;20035;-63
2021/01/15 12:37:57;;;;;;;;;;;;;;;;;;4982792;28;19956;-63
2021/01/15 12:40:25;;;;;;;;;;;;;;;;;;4989493;28;19929;-65
2021/01/15 12:42:53;;;;;;;;;;;;;;;;;;4987152;28;20448;-65
2021/01/15 12:45:20;;;;;;;;;;;;;;;;;;4992317;28;19937;-65
2021/01/15 12:47:48;;;;;;;;;;;;;;;;;;4986727;28;19936;-65
2021/01/15 12:50:16;;;;;;;;;;;;;;;;;;4981858;28;20407;-65
2021/01/15 12:52:43;;;;;;;;;;;;;;;;;;4986029;28;19934;-65
2021/01/15 12:55:11;;;;;;;;;;;;;;;;;;4987137;28;20382;-65
2021/01/15 12:57:38;;;;;;;;;;;;;;;;;;4981420;28;20324;-65
2021/01/15 13:00:06;;;;;;;;;;;;;;;;;;4984210;28;20072;-60
2021/01/15 13:02:33;;;;;;;;;;;;;;;;;;4979997;28;20499;-61
2021/01/15 13:05:01;;;;;;;;;;;;;;;;;;4981090;28;20574;-61
2021/01/15 13:07:29;;;;;;;;;;;;;;;;;;4988232;28;19934;-61
2021/01/15 13:09:57;;;;;;;;;;;;;;;;;;4978443;28;19934;-61
2021/01/15 13:12:24;;;;;;;;;;;;;;;;;;4991730;28;19930;-61
2021/01/15 13:14:52;;;;;;;;;;;;;;;;;;4987238;28;20266;-61
2021/01/15 13:17:20;;;;;;;;;;;;;;;;;;4982512;28;19926;-62
2021/01/15 13:22:33;;;;;;;;;;;;;;;;;;4803926;26;20370;-62
2021/01/15 13:25:01;;;;;;;;;;;;;;;;;;5259153;23;19945;-92
2021/01/15 13:27:28;;;;;;;;;;;;;;;;;;4968434;28;20358;-89
2021/01/15 13:29:56;;;;;;;;;;;;;;;;;;4961784;28;20375;-89
2021/01/15 13:32:44;;;;;;;;;;;;;;;;;;4964611;28;19926;-91
2021/01/15 13:35:11;;;;;;;;;;;;;;;;;;4957436;28;21220;-91
2021/01/15 13:37:39;;;;;;;;;;;;;;;;;;4962440;28;20020;-90
2021/01/15 13:40:06;;;;;;;;;;;;;;;;;;4968473;28;19930;-92
2021/01/15 13:42:34;;;;;;;;;;;;;;;;;;4963618;28;20008;-92
2021/01/15 13:45:02;;;;;;;;;;;;;;;;;;4964529;28;19930;-92
2021/01/15 13:47:30;;;;;;;;;;;;;;;;;;4961610;28;20017;-94
2021/01/15 13:50:11;;;;;;;;;;;;;;;;;;4967531;28;20012;-92
2021/01/15 13:52:39;;;;;;;;;;;;;;;;;;4963306;28;20390;-93
2021/01/15 13:55:10;;;;;;;;;;;;;;;;;;4964274;28;20396;-92
2021/01/15 13:57:37;;;;;;;;;;;;;;;;;;4969579;28;19933;-93
2021/01/15 14:00:07;;;;;;;;;;;;;;;;;;4970014;28;19929;-92
2021/01/15 14:02:34;;;;;;;;;;;;;;;;;;4974834;28;19976;-91
2021/01/15 14:05:06;;;;;;;;;;;;;;;;;;4969767;28;19926;-92
2021/01/15 14:07:46;;;;;;;;;;;;;;;;;;4968659;28;19941;-91
2021/01/15 14:10:13;;;;;;;;;;;;;;;;;;4966647;28;19927;-91
2021/01/15 14:12:41;;;;;;;;;;;;;;;;;;4969399;28;19931;-91
2021/01/15 14:15:08;;;;;;;;;;;;;;;;;;4970446;28;19933;-91
2021/01/15 14:17:35;;;;;;;;;;;;;;;;;;4967526;28;19927;-90
2021/01/15 14:20:06;;;;;;;;;;;;;;;;;;4968718;28;19930;-92
2021/01/15 14:22:33;;;;;;;;;;;;;;;;;;4967767;28;19930;-93
2021/01/15 14:25:01;;;;;;;;;;;;;;;;;;4964705;28;19988;-90
2021/01/15 14:27:31;;;;;;;;;;;;;;;;;;4971265;28;19950;-90
2021/01/15 14:30:10;;;;;;;;;;;;;;;;;;4975281;28;19954;-90
2021/01/15 14:32:44;;;;;;;;;;;;;;;;;;4975197;28;20346;-91
2021/01/15 14:35:11;;;;;;;;;;;;;;;;;;4974724;28;19937;-90
2021/01/15 14:43:34;;;;;;;;;;;;;;;;;;4956776;29;19926;-91
2021/01/15 14:46:10;;;;;;;;;;;;;;;;;;4959439;28;19934;-91
2021/01/15 14:48:37;;;;;;;;;;;;;;;;;;4973361;28;20374;-91
2021/01/15 14:51:05;;;;;;;;;;;;;;;;;;4971438;28;20016;-91
2021/01/15 14:53:32;;;;;;;;;;;;;;;;;;4967871;28;19934;-92
2021/01/15 14:56:13;;;;;;;;;;;;;;;;;;4979267;28;20004;-92
2021/01/15 15:01:43;;;;;;;;;;;;;;;;;;4972325;28;19930;-94
2021/01/15 15:04:11;;;;;;;;;;;;;;;;;;4971554;28;19930;-91
2021/01/15 15:06:38;;;;;;;;;;;;;;;;;;4958302;28;19934;-91
2021/01/15 15:09:06;;;;;;;;;;;;;;;;;;4969698;28;19934;-91
2021/01/15 15:11:33;;;;;;;;;;;;;;;;;;4974431;28;20386;-91
2021/01/15 15:14:01;;;;;;;;;;;;;;;;;;4971719;28;19985;-91
2021/01/15 15:16:29;;;;;;;;;;;;;;;;;;4974540;28;20318;-91
2021/01/15 15:18:56;;;;;;;;;;;;;;;;;;4969437;28;19930;-90
2021/01/15 15:21:24;;;;;;;;;;;;;;;;;;4971144;28;19984;-92
2021/01/15 15:23:51;;;;;;;;;;;;;;;;;;4973794;28;20361;-92
2021/01/15 15:26:18;;;;;;;;;;;;;;;;;;4972733;28;19926;-91
2021/01/15 15:28:47;;;;;;;;;;;;;;;;;;4971242;28;20468;-91
2021/01/15 15:31:15;;;;;;;;;;;;;;;;;;4973328;28;20020;-92
2021/01/15 15:33:44;;;;;;;;;;;;;;;;;;4963814;28;19934;-91
2021/01/15 15:36:12;;;;;;;;;;;;;;;;;;4970662;28;19926;-90
2021/01/15 15:38:39;;;;;;;;;;;;;;;;;;4971617;28;19993;-91
2021/01/15 15:41:07;;;;;;;;;;;;;;;;;;4973356;28;19934;-92
2021/01/15 15:43:35;;;;;;;;;;;;;;;;;;4973370;28;19926;-92
2021/01/15 15:46:03;;;;;;;;;;;;;;;;;;4973757;28;20009;-91
2021/01/15 15:48:30;;;;;;;;;;;;;;;;;;4975094;28;19934;-91
2021/01/15 15:50:58;;;;;;;;;;;;;;;;;;4970007;28;20621;-92
2021/01/15 15:53:25;;;;;;;;;;;;;;;;;;4972017;28;19949;-90
2021/01/15 16:08:29;;;;;;;;;;;;;;;;;;4977028;28;19921;-91
2021/01/15 16:10:57;;;;;;;;;;;;;;;;;;4982579;28;20844;-90
2021/01/15 16:13:24;;;;;;;;;;;;;;;;;;4977935;28;19989;-88
2021/01/15 16:25:28;;;;;;;;;;;;;;;;;;5196696;23;19994;-61
2021/01/15 16:27:55;;;;;;;;;;;;;;;;;;4990653;28;19996;-59
2021/01/15 16:30:22;;;;;;;;;;;;;;;;;;4986788;28;19925;-60
2021/01/15 16:32:50;;;;;;;;;;;;;;;;;;4991007;28;19934;-60
2021/01/15 16:35:17;;;;;;;;;;;;;;;;;;4990835;28;20473;-60
2021/01/15 16:37:44;;;;;;;;;;;;;;;;;;4999645;28;19983;-62
2021/01/15 16:40:12;;;;;;;;;;;;;;;;;;4996335;28;19926;-61
2021/01/15 16:42:41;;;;;;;;;;;;;;;;;;4983026;28;19942;-62
2021/01/15 16:45:08;;;;;;;;;;;;;;;;;;4994898;28;19933;-62
2021/01/15 16:47:35;;;;;;;;;;;;;;;;;;4991498;28;19929;-61
2021/01/15 16:50:03;;;;;;;;;;;;;;;;;;4989344;28;19933;-63
2021/01/15 16:52:30;;;;;;;;;;;;;;;;;;4990253;28;20328;-62
2021/01/15 16:54:57;;;;;;;;;;;;;;;;;;4994644;28;20305;-62
2021/01/15 16:57:26;;;;;;;;;;;;;;;;;;4984928;28;19968;-62
2021/01/15 16:59:54;;;;;;;;;;;;;;;;;;4992103;28;19926;-62
2021/01/15 17:02:22;;;;;;;;;;;;;;;;;;4988789;28;19933;-61
2021/01/15 17:04:49;;;;;;;;;;;;;;;;;;4981058;28;19933;-62
2021/01/15 17:07:17;;;;;;;;;;;;;;;;;;4999356;28;19930;-62
2021/01/15 17:09:46;;;;;;;;;;;;;;;;;;4990235;28;19937;-62
2021/01/15 17:12:13;;;;;;;;;;;;;;;;;;4991990;28;19949;-62
2021/01/15 17:14:40;;;;;;;;;;;;;;;;;;4992224;28;19940;-62
2021/01/15 17:17:07;;;;;;;;;;;;;;;;;;4993318;28;19934;-62
2021/01/15 17:19:35;;;;;;;;;;;;;;;;;;5003428;28;19925;-61
2021/01/15 17:22:02;;;;;;;;;;;;;;;;;;4990464;28;20017;-62